sensor_id;sensor_type;location;lat;lon;timestamp;temperature;humidity
64620;DHT22;51029;51.058;13.826;2023-03-23T00:01:53;12.70;99.90
64620;DHT22;51029;51.058;13.826;2023-03-23T00:04:19;12.80;99.90
64620;DHT22;51029;51.058;13.826;2023-03-23T00:06:46;12.80;99.90
64620;DHT22;51029;51.058;13.826;2023-03-23T00:09:13;12.70;99.90
64620;DHT22;51029;51.058;13.826;2023-03-23T00:11:41;12.70;99.90
64620;DHT22;51029;51.058;13.826;2023-03-23T00:14:07;12.70;99.90
64620;DHT22;51029;51.058;13.826;2023-03-23T00:16:38;12.70;99.90
64620;DHT22;51029;51.058;13.826;2023-03-23T00:19:08;12.70;99.90
64620;DHT22;51029;51.058;13.826;2023-03-23T00:21:36;12.70;99.90
64620;DHT22;51029;51.058;13.826;2023-03-23T00:24:05;12.70;99.90
64620;DHT22;51029;51.058;13.826;2023-03-23T00:26:35;12.70;99.90
64620;DHT22;51029;51.058;13.826;2023-03-23T00:29:03;12.70;99.90
64620;DHT22;51029;51.058;13.826;2023-03-23T00:31:29;12.60;99.90
64620;DHT22;51029;51.058;13.826;2023-03-23T00:34:03;12.60;99.90
64620;DHT22;51029;51.058;13.826;2023-03-23T00:36:33;12.60;99.90
64620;DHT22;51029;51.058;13.826;2023-03-23T00:39:03;12.60;99.90
64620;DHT22;51029;51.058;13.826;2023-03-23T00:41:29;12.60;99.90
64620;DHT22;51029;51.058;13.826;2023-03-23T00:43:57;12.60;99.90
64620;DHT22;51029;51.058;13.826;2023-03-23T00:46:24;12.60;99.90
64620;DHT22;51029;51.058;13.826;2023-03-23T00:48:50;12.60;99.90
64620;DHT22;51029;51.058;13.826;2023-03-23T00:51:18;12.70;99.90
64620;DHT22;51029;51.058;13.826;2023-03-23T00:53:44;12.70;99.90
64620;DHT22;51029;51.058;13.826;2023-03-23T00:56:10;12.70;99.90
64620;DHT22;51029;51.058;13.826;2023-03-23T00:58:36;12.80;99.90
64620;DHT22;51029;51.058;13.826;2023-03-23T01:01:02;12.80;99.90
64620;DHT22;51029;51.058;13.826;2023-03-23T01:03:28;12.80;99.90
64620;DHT22;51029;51.058;13.826;2023-03-23T01:05:55;12.80;99.90
64620;DHT22;51029;51.058;13.826;2023-03-23T01:08:22;12.80;99.90
64620;DHT22;51029;51.058;13.826;2023-03-23T01:10:48;12.90;99.90
64620;DHT22;51029;51.058;13.826;2023-03-23T01:13:14;12.90;99.90
64620;DHT22;51029;51.058;13.826;2023-03-23T01:15:41;12.80;99.90
64620;DHT22;51029;51.058;13.826;2023-03-23T01:18:08;12.80;99.90
64620;DHT22;51029;51.058;13.826;2023-03-23T01:20:35;12.80;99.90
64620;DHT22;51029;51.058;13.826;2023-03-23T01:23:02;12.70;99.90
64620;DHT22;51029;51.058;13.826;2023-03-23T01:25:30;12.70;99.90
64620;DHT22;51029;51.058;13.826;2023-03-23T01:27:56;12.70;99.90
64620;DHT22;51029;51.058;13.826;2023-03-23T01:30:23;12.70;99.90
64620;DHT22;51029;51.058;13.826;2023-03-23T01:32:48;12.70;99.90
64620;DHT22;51029;51.058;13.826;2023-03-23T01:35:15;12.80;99.90
64620;DHT22;51029;51.058;13.826;2023-03-23T01:37:42;12.90;99.90
64620;DHT22;51029;51.058;13.826;2023-03-23T01:40:08;12.80;99.90
64620;DHT22;51029;51.058;13.826;2023-03-23T01:42:36;12.80;99.90
64620;DHT22;51029;51.058;13.826;2023-03-23T01:47:56;12.70;99.90
64620;DHT22;51029;51.058;13.826;2023-03-23T01:50:24;12.70;99.90
64620;DHT22;51029;51.058;13.826;2023-03-23T01:52:52;12.70;99.90
64620;DHT22;51029;51.058;13.826;2023-03-23T01:55:19;12.70;99.90
64620;DHT22;51029;51.058;13.826;2023-03-23T01:57:45;12.60;99.90
64620;DHT22;51029;51.058;13.826;2023-03-23T02:00:11;12.60;99.90
64620;DHT22;51029;51.058;13.826;2023-03-23T02:02:44;12.60;99.90
64620;DHT22;51029;51.058;13.826;2023-03-23T02:05:15;12.60;99.90
64620;DHT22;51029;51.058;13.826;2023-03-23T02:07:43;12.60;99.90
64620;DHT22;51029;51.058;13.826;2023-03-23T02:10:09;12.60;99.90
64620;DHT22;51029;51.058;13.826;2023-03-23T02:12:35;12.60;99.90
64620;DHT22;51029;51.058;13.826;2023-03-23T02:15:01;12.60;99.90
64620;DHT22;51029;51.058;13.826;2023-03-23T02:17:51;12.60;99.90
64620;DHT22;51029;51.058;13.826;2023-03-23T02:29:07;12.50;99.90
64620;DHT22;51029;51.058;13.826;2023-03-23T02:34:30;12.50;99.90
64620;DHT22;51029;51.058;13.826;2023-03-23T02:37:08;12.40;99.90
64620;DHT22;51029;51.058;13.826;2023-03-23T02:39:39;12.50;99.90
64620;DHT22;51029;51.058;13.826;2023-03-23T02:42:08;12.60;99.90
64620;DHT22;51029;51.058;13.826;2023-03-23T02:44:36;12.60;99.90
64620;DHT22;51029;51.058;13.826;2023-03-23T02:47:07;12.50;99.90
64620;DHT22;51029;51.058;13.826;2023-03-23T02:49:35;12.50;99.90
64620;DHT22;51029;51.058;13.826;2023-03-23T02:52:05;12.50;99.90
64620;DHT22;51029;51.058;13.826;2023-03-23T02:54:32;12.40;99.90
64620;DHT22;51029;51.058;13.826;2023-03-23T02:56:58;12.30;99.90
64620;DHT22;51029;51.058;13.826;2023-03-23T02:59:24;12.20;99.90
64620;DHT22;51029;51.058;13.826;2023-03-23T03:02:12;12.20;99.90
64620;DHT22;51029;51.058;13.826;2023-03-23T03:04:40;12.10;99.90
64620;DHT22;51029;51.058;13.826;2023-03-23T03:07:23;12.00;99.90
64620;DHT22;51029;51.058;13.826;2023-03-23T03:13:05;11.90;99.90
64620;DHT22;51029;51.058;13.826;2023-03-23T03:15:55;12.00;99.90
64620;DHT22;51029;51.058;13.826;2023-03-23T03:18:24;12.00;99.90
64620;DHT22;51029;51.058;13.826;2023-03-23T03:20:57;12.00;99.90
64620;DHT22;51029;51.058;13.826;2023-03-23T03:23:24;12.10;99.90
64620;DHT22;51029;51.058;13.826;2023-03-23T03:25:52;12.20;99.90
64620;DHT22;51029;51.058;13.826;2023-03-23T03:28:20;12.20;99.90
64620;DHT22;51029;51.058;13.826;2023-03-23T03:30:59;12.20;99.90
64620;DHT22;51029;51.058;13.826;2023-03-23T03:33:28;12.30;99.90
64620;DHT22;51029;51.058;13.826;2023-03-23T03:35:58;12.30;99.90
64620;DHT22;51029;51.058;13.826;2023-03-23T03:38:24;12.40;99.90
64620;DHT22;51029;51.058;13.826;2023-03-23T03:40:50;12.50;99.90
64620;DHT22;51029;51.058;13.826;2023-03-23T03:43:16;12.50;99.90
64620;DHT22;51029;51.058;13.826;2023-03-23T03:45:41;12.50;99.90
64620;DHT22;51029;51.058;13.826;2023-03-23T03:48:07;12.50;99.90
64620;DHT22;51029;51.058;13.826;2023-03-23T03:50:33;12.50;99.90
64620;DHT22;51029;51.058;13.826;2023-03-23T03:52:58;12.50;99.90
64620;DHT22;51029;51.058;13.826;2023-03-23T03:55:24;12.70;99.90
64620;DHT22;51029;51.058;13.826;2023-03-23T03:57:50;12.70;99.90
64620;DHT22;51029;51.058;13.826;2023-03-23T04:00:16;12.80;99.90
64620;DHT22;51029;51.058;13.826;2023-03-23T04:02:47;13.10;99.90
64620;DHT22;51029;51.058;13.826;2023-03-23T04:05:16;13.10;99.90
64620;DHT22;51029;51.058;13.826;2023-03-23T04:07:42;13.20;99.90
64620;DHT22;51029;51.058;13.826;2023-03-23T04:10:09;13.20;99.90
64620;DHT22;51029;51.058;13.826;2023-03-23T04:12:36;13.10;99.90
64620;DHT22;51029;51.058;13.826;2023-03-23T04:15:02;13.20;99.90
64620;DHT22;51029;51.058;13.826;2023-03-23T04:17:28;13.00;99.90
64620;DHT22;51029;51.058;13.826;2023-03-23T04:19:54;13.00;99.90
64620;DHT22;51029;51.058;13.826;2023-03-23T04:22:25;13.00;99.90
64620;DHT22;51029;51.058;13.826;2023-03-23T04:24:58;12.90;99.90
64620;DHT22;51029;51.058;13.826;2023-03-23T04:27:26;12.90;99.90
64620;DHT22;51029;51.058;13.826;2023-03-23T04:29:57;12.80;99.90
64620;DHT22;51029;51.058;13.826;2023-03-23T04:32:27;12.80;99.90
64620;DHT22;51029;51.058;13.826;2023-03-23T04:34:56;12.70;99.90
64620;DHT22;51029;51.058;13.826;2023-03-23T04:37:24;12.70;99.90
64620;DHT22;51029;51.058;13.826;2023-03-23T04:39:57;12.70;99.90
64620;DHT22;51029;51.058;13.826;2023-03-23T04:42:30;12.60;99.90
64620;DHT22;51029;51.058;13.826;2023-03-23T04:44:59;12.60;99.90
64620;DHT22;51029;51.058;13.826;2023-03-23T04:47:26;12.60;99.90
64620;DHT22;51029;51.058;13.826;2023-03-23T04:49:55;12.60;99.90
64620;DHT22;51029;51.058;13.826;2023-03-23T04:52:21;12.60;99.90
64620;DHT22;51029;51.058;13.826;2023-03-23T04:54:47;12.60;99.90
64620;DHT22;51029;51.058;13.826;2023-03-23T04:57:13;12.50;99.90
64620;DHT22;51029;51.058;13.826;2023-03-23T04:59:40;12.50;99.90
64620;DHT22;51029;51.058;13.826;2023-03-23T05:02:06;12.50;99.90
64620;DHT22;51029;51.058;13.826;2023-03-23T05:04:31;12.50;99.90
64620;DHT22;51029;51.058;13.826;2023-03-23T05:06:58;12.50;99.90
64620;DHT22;51029;51.058;13.826;2023-03-23T05:09:24;12.50;99.90
64620;DHT22;51029;51.058;13.826;2023-03-23T05:11:49;12.50;99.90
64620;DHT22;51029;51.058;13.826;2023-03-23T05:14:15;12.50;99.90
64620;DHT22;51029;51.058;13.826;2023-03-23T05:16:41;12.50;99.90
64620;DHT22;51029;51.058;13.826;2023-03-23T05:19:07;12.60;99.90
64620;DHT22;51029;51.058;13.826;2023-03-23T05:21:33;12.60;99.90
64620;DHT22;51029;51.058;13.826;2023-03-23T05:23:59;12.60;99.90
64620;DHT22;51029;51.058;13.826;2023-03-23T05:26:26;12.60;99.90
64620;DHT22;51029;51.058;13.826;2023-03-23T05:28:56;12.70;99.90
64620;DHT22;51029;51.058;13.826;2023-03-23T05:31:22;12.60;99.90
64620;DHT22;51029;51.058;13.826;2023-03-23T05:33:49;12.60;99.90
64620;DHT22;51029;51.058;13.826;2023-03-23T05:36:14;12.70;99.90
64620;DHT22;51029;51.058;13.826;2023-03-23T05:38:41;12.70;99.90
64620;DHT22;51029;51.058;13.826;2023-03-23T05:41:16;12.70;99.90
64620;DHT22;51029;51.058;13.826;2023-03-23T05:43:42;12.80;99.90
64620;DHT22;51029;51.058;13.826;2023-03-23T05:46:08;12.80;99.90
64620;DHT22;51029;51.058;13.826;2023-03-23T05:48:34;12.90;99.90
64620;DHT22;51029;51.058;13.826;2023-03-23T05:51:00;12.90;99.90
64620;DHT22;51029;51.058;13.826;2023-03-23T05:53:25;13.00;99.90
64620;DHT22;51029;51.058;13.826;2023-03-23T05:55:51;13.00;99.90
64620;DHT22;51029;51.058;13.826;2023-03-23T05:58:18;13.00;99.90
64620;DHT22;51029;51.058;13.826;2023-03-23T06:00:43;13.10;99.90
64620;DHT22;51029;51.058;13.826;2023-03-23T06:03:10;13.20;99.90
64620;DHT22;51029;51.058;13.826;2023-03-23T06:05:35;13.30;99.90
64620;DHT22;51029;51.058;13.826;2023-03-23T06:08:01;13.30;99.90
64620;DHT22;51029;51.058;13.826;2023-03-23T06:10:27;13.50;99.90
64620;DHT22;51029;51.058;13.826;2023-03-23T06:12:53;13.60;99.90
64620;DHT22;51029;51.058;13.826;2023-03-23T06:15:19;13.70;99.90
64620;DHT22;51029;51.058;13.826;2023-03-23T06:17:45;13.70;99.90
64620;DHT22;51029;51.058;13.826;2023-03-23T06:20:11;13.70;99.90
64620;DHT22;51029;51.058;13.826;2023-03-23T06:22:37;13.70;99.90
64620;DHT22;51029;51.058;13.826;2023-03-23T06:25:06;13.80;99.90
64620;DHT22;51029;51.058;13.826;2023-03-23T06:27:32;13.90;99.90
64620;DHT22;51029;51.058;13.826;2023-03-23T06:29:57;14.00;99.90
64620;DHT22;51029;51.058;13.826;2023-03-23T06:32:25;14.10;99.90
64620;DHT22;51029;51.058;13.826;2023-03-23T06:34:51;14.30;99.90
64620;DHT22;51029;51.058;13.826;2023-03-23T06:37:17;14.50;99.90
64620;DHT22;51029;51.058;13.826;2023-03-23T06:39:43;14.70;99.90
64620;DHT22;51029;51.058;13.826;2023-03-23T06:42:10;14.80;99.90
64620;DHT22;51029;51.058;13.826;2023-03-23T06:44:37;14.80;99.90
64620;DHT22;51029;51.058;13.826;2023-03-23T06:47:03;14.90;99.90
64620;DHT22;51029;51.058;13.826;2023-03-23T06:49:29;14.90;99.90
64620;DHT22;51029;51.058;13.826;2023-03-23T06:51:54;14.90;99.90
64620;DHT22;51029;51.058;13.826;2023-03-23T06:54:21;14.90;99.90
64620;DHT22;51029;51.058;13.826;2023-03-23T06:56:47;14.90;99.90
64620;DHT22;51029;51.058;13.826;2023-03-23T06:59:12;14.90;99.90
64620;DHT22;51029;51.058;13.826;2023-03-23T07:01:39;14.90;99.90
64620;DHT22;51029;51.058;13.826;2023-03-23T07:04:05;14.90;99.90
64620;DHT22;51029;51.058;13.826;2023-03-23T07:06:31;14.90;99.90
64620;DHT22;51029;51.058;13.826;2023-03-23T07:08:57;14.90;99.90
64620;DHT22;51029;51.058;13.826;2023-03-23T07:11:22;15.10;99.90
64620;DHT22;51029;51.058;13.826;2023-03-23T07:13:49;15.30;99.90
64620;DHT22;51029;51.058;13.826;2023-03-23T07:16:16;15.50;99.90
64620;DHT22;51029;51.058;13.826;2023-03-23T07:18:42;15.70;99.90
64620;DHT22;51029;51.058;13.826;2023-03-23T07:21:08;15.90;99.90
64620;DHT22;51029;51.058;13.826;2023-03-23T07:23:34;16.00;99.90
64620;DHT22;51029;51.058;13.826;2023-03-23T07:25:59;16.20;99.90
64620;DHT22;51029;51.058;13.826;2023-03-23T07:28:26;16.30;99.90
64620;DHT22;51029;51.058;13.826;2023-03-23T07:30:51;16.30;99.90
64620;DHT22;51029;51.058;13.826;2023-03-23T07:33:17;16.30;99.90
64620;DHT22;51029;51.058;13.826;2023-03-23T07:35:43;16.40;99.90
64620;DHT22;51029;51.058;13.826;2023-03-23T07:38:09;16.40;99.90
64620;DHT22;51029;51.058;13.826;2023-03-23T07:40:35;16.30;99.90
64620;DHT22;51029;51.058;13.826;2023-03-23T07:43:02;16.30;99.90
64620;DHT22;51029;51.058;13.826;2023-03-23T07:45:29;16.30;99.90
64620;DHT22;51029;51.058;13.826;2023-03-23T07:47:55;16.20;99.90
64620;DHT22;51029;51.058;13.826;2023-03-23T07:50:21;16.20;99.90
64620;DHT22;51029;51.058;13.826;2023-03-23T07:52:58;16.30;99.90
64620;DHT22;51029;51.058;13.826;2023-03-23T07:55:24;16.40;99.90
64620;DHT22;51029;51.058;13.826;2023-03-23T07:57:52;16.40;99.90
64620;DHT22;51029;51.058;13.826;2023-03-23T08:00:19;16.40;99.90
64620;DHT22;51029;51.058;13.826;2023-03-23T08:02:55;16.50;99.90
64620;DHT22;51029;51.058;13.826;2023-03-23T08:05:22;16.50;99.90
64620;DHT22;51029;51.058;13.826;2023-03-23T08:07:49;16.40;99.90
64620;DHT22;51029;51.058;13.826;2023-03-23T08:10:15;16.30;99.90
64620;DHT22;51029;51.058;13.826;2023-03-23T08:12:44;16.40;99.90
64620;DHT22;51029;51.058;13.826;2023-03-23T08:15:11;16.50;99.90
64620;DHT22;51029;51.058;13.826;2023-03-23T08:17:40;16.50;99.90
64620;DHT22;51029;51.058;13.826;2023-03-23T08:20:07;16.50;99.90
64620;DHT22;51029;51.058;13.826;2023-03-23T08:22:59;16.50;99.90
64620;DHT22;51029;51.058;13.826;2023-03-23T08:25:25;16.40;99.90
64620;DHT22;51029;51.058;13.826;2023-03-23T08:27:52;16.20;99.90
64620;DHT22;51029;51.058;13.826;2023-03-23T08:30:19;16.10;99.90
64620;DHT22;51029;51.058;13.826;2023-03-23T08:32:46;16.00;99.90
64620;DHT22;51029;51.058;13.826;2023-03-23T08:35:12;16.00;99.90
64620;DHT22;51029;51.058;13.826;2023-03-23T08:37:39;16.00;99.90
64620;DHT22;51029;51.058;13.826;2023-03-23T08:40:07;16.00;99.90
64620;DHT22;51029;51.058;13.826;2023-03-23T08:42:38;15.90;99.90
64620;DHT22;51029;51.058;13.826;2023-03-23T08:45:05;15.90;99.90
64620;DHT22;51029;51.058;13.826;2023-03-23T08:47:33;15.90;99.90
64620;DHT22;51029;51.058;13.826;2023-03-23T08:49:58;15.90;99.90
64620;DHT22;51029;51.058;13.826;2023-03-23T08:52:24;15.80;99.90
64620;DHT22;51029;51.058;13.826;2023-03-23T08:54:50;15.80;99.90
64620;DHT22;51029;51.058;13.826;2023-03-23T08:57:15;15.80;99.90
64620;DHT22;51029;51.058;13.826;2023-03-23T08:59:41;15.80;99.90
64620;DHT22;51029;51.058;13.826;2023-03-23T09:02:10;15.90;99.90
64620;DHT22;51029;51.058;13.826;2023-03-23T09:04:37;15.80;99.90
64620;DHT22;51029;51.058;13.826;2023-03-23T09:07:03;15.80;99.90
64620;DHT22;51029;51.058;13.826;2023-03-23T09:09:29;15.70;99.90
64620;DHT22;51029;51.058;13.826;2023-03-23T09:11:54;15.70;99.90
64620;DHT22;51029;51.058;13.826;2023-03-23T09:14:20;15.80;99.90
64620;DHT22;51029;51.058;13.826;2023-03-23T09:16:46;16.00;99.90
64620;DHT22;51029;51.058;13.826;2023-03-23T09:19:11;16.20;99.90
64620;DHT22;51029;51.058;13.826;2023-03-23T09:21:38;16.20;99.90
64620;DHT22;51029;51.058;13.826;2023-03-23T09:24:04;16.30;99.90
64620;DHT22;51029;51.058;13.826;2023-03-23T09:26:30;16.10;99.90
64620;DHT22;51029;51.058;13.826;2023-03-23T09:28:57;15.90;99.90
64620;DHT22;51029;51.058;13.826;2023-03-23T09:31:23;15.90;99.90
64620;DHT22;51029;51.058;13.826;2023-03-23T09:33:53;15.90;99.90
64620;DHT22;51029;51.058;13.826;2023-03-23T09:36:21;15.80;99.90
64620;DHT22;51029;51.058;13.826;2023-03-23T09:38:48;15.80;99.90
64620;DHT22;51029;51.058;13.826;2023-03-23T09:41:26;15.90;99.90
64620;DHT22;51029;51.058;13.826;2023-03-23T09:46:59;15.80;99.90
64620;DHT22;51029;51.058;13.826;2023-03-23T09:49:35;15.80;99.90
64620;DHT22;51029;51.058;13.826;2023-03-23T09:52:16;15.90;99.90
64620;DHT22;51029;51.058;13.826;2023-03-23T09:54:45;15.80;99.90
64620;DHT22;51029;51.058;13.826;2023-03-23T09:57:22;15.70;99.90
64620;DHT22;51029;51.058;13.826;2023-03-23T10:02:49;15.60;99.90
64620;DHT22;51029;51.058;13.826;2023-03-23T10:05:32;15.70;99.90
64620;DHT22;51029;51.058;13.826;2023-03-23T10:08:00;15.80;99.90
64620;DHT22;51029;51.058;13.826;2023-03-23T10:10:35;15.90;99.90
64620;DHT22;51029;51.058;13.826;2023-03-23T10:13:19;16.10;99.90
64620;DHT22;51029;51.058;13.826;2023-03-23T10:15:48;16.20;99.90
64620;DHT22;51029;51.058;13.826;2023-03-23T10:18:23;16.30;99.90
64620;DHT22;51029;51.058;13.826;2023-03-23T10:20:55;16.30;99.90
64620;DHT22;51029;51.058;13.826;2023-03-23T10:28:55;16.30;99.90
64620;DHT22;51029;51.058;13.826;2023-03-23T10:31:26;16.30;99.90
64620;DHT22;51029;51.058;13.826;2023-03-23T10:33:57;16.40;99.90
64620;DHT22;51029;51.058;13.826;2023-03-23T10:36:28;16.50;99.90
64620;DHT22;51029;51.058;13.826;2023-03-23T10:39:14;16.60;99.90
64620;DHT22;51029;51.058;13.826;2023-03-23T10:41:42;16.60;99.90
64620;DHT22;51029;51.058;13.826;2023-03-23T10:44:11;16.60;99.90
64620;DHT22;51029;51.058;13.826;2023-03-23T10:46:57;16.70;99.90
64620;DHT22;51029;51.058;13.826;2023-03-23T10:54:57;16.60;99.90
64620;DHT22;51029;51.058;13.826;2023-03-23T10:57:25;16.70;99.90
64620;DHT22;51029;51.058;13.826;2023-03-23T10:59:59;16.80;99.90
64620;DHT22;51029;51.058;13.826;2023-03-23T11:02:26;17.00;99.90
64620;DHT22;51029;51.058;13.826;2023-03-23T11:05:00;16.90;99.90
64620;DHT22;51029;51.058;13.826;2023-03-23T11:07:30;16.90;99.90
64620;DHT22;51029;51.058;13.826;2023-03-23T11:10:05;16.80;99.90
64620;DHT22;51029;51.058;13.826;2023-03-23T11:12:34;16.90;99.90
64620;DHT22;51029;51.058;13.826;2023-03-23T11:15:25;16.80;99.90
64620;DHT22;51029;51.058;13.826;2023-03-23T11:17:57;16.70;99.90
64620;DHT22;51029;51.058;13.826;2023-03-23T11:20:24;16.70;99.90
64620;DHT22;51029;51.058;13.826;2023-03-23T11:22:52;16.60;99.90
64620;DHT22;51029;51.058;13.826;2023-03-23T11:25:17;16.50;99.90
64620;DHT22;51029;51.058;13.826;2023-03-23T11:27:43;16.50;99.90
64620;DHT22;51029;51.058;13.826;2023-03-23T11:30:24;16.50;99.90
64620;DHT22;51029;51.058;13.826;2023-03-23T11:32:51;16.50;99.90
64620;DHT22;51029;51.058;13.826;2023-03-23T11:35:21;16.40;99.90
64620;DHT22;51029;51.058;13.826;2023-03-23T11:37:56;16.30;99.90
64620;DHT22;51029;51.058;13.826;2023-03-23T11:40:27;16.20;99.90
64620;DHT22;51029;51.058;13.826;2023-03-23T11:43:08;16.20;99.90
64620;DHT22;51029;51.058;13.826;2023-03-23T11:45:38;16.20;99.90
64620;DHT22;51029;51.058;13.826;2023-03-23T11:50:44;16.20;99.90
64620;DHT22;51029;51.058;13.826;2023-03-23T11:58:44;16.20;99.90
64620;DHT22;51029;51.058;13.826;2023-03-23T12:13:18;16.00;99.90
64620;DHT22;51029;51.058;13.826;2023-03-23T12:16:00;16.00;99.90
64620;DHT22;51029;51.058;13.826;2023-03-23T12:18:38;16.10;99.90
64620;DHT22;51029;51.058;13.826;2023-03-23T12:21:32;16.20;99.90
64620;DHT22;51029;51.058;13.826;2023-03-23T12:24:52;16.30;99.90
64620;DHT22;51029;51.058;13.826;2023-03-23T12:43:52;16.40;99.90
64620;DHT22;51029;51.058;13.826;2023-03-23T12:49:24;16.50;99.90
64620;DHT22;51029;51.058;13.826;2023-03-23T12:54:26;16.70;99.90
64620;DHT22;51029;51.058;13.826;2023-03-23T12:57:04;16.70;99.90
64620;DHT22;51029;51.058;13.826;2023-03-23T13:04:50;16.50;99.90
64620;DHT22;51029;51.058;13.826;2023-03-23T13:07:22;16.60;99.90
64620;DHT22;51029;51.058;13.826;2023-03-23T13:10:02;16.70;99.90
64620;DHT22;51029;51.058;13.826;2023-03-23T13:12:29;16.80;99.90
64620;DHT22;51029;51.058;13.826;2023-03-23T13:15:20;16.80;99.90
64620;DHT22;51029;51.058;13.826;2023-03-23T13:20:58;17.00;99.90
64620;DHT22;51029;51.058;13.826;2023-03-23T13:23:34;16.80;99.90
64620;DHT22;51029;51.058;13.826;2023-03-23T13:26:11;16.70;99.90
64620;DHT22;51029;51.058;13.826;2023-03-23T13:33:58;16.40;99.90
64620;DHT22;51029;51.058;13.826;2023-03-23T13:36:37;16.50;99.90
64620;DHT22;51029;51.058;13.826;2023-03-23T13:39:06;16.40;99.90
64620;DHT22;51029;51.058;13.826;2023-03-23T13:41:34;16.30;99.90
64620;DHT22;51029;51.058;13.826;2023-03-23T13:44:24;16.30;99.90
64620;DHT22;51029;51.058;13.826;2023-03-23T13:49:58;16.70;99.90
64620;DHT22;51029;51.058;13.826;2023-03-23T13:55:20;17.30;99.90
64620;DHT22;51029;51.058;13.826;2023-03-23T14:03:09;17.40;99.90
64620;DHT22;51029;51.058;13.826;2023-03-23T14:13:38;19.30;99.90
64620;DHT22;51029;51.058;13.826;2023-03-23T14:16:26;21.80;99.90
64620;DHT22;51029;51.058;13.826;2023-03-23T14:18:55;22.50;96.90
64620;DHT22;51029;51.058;13.826;2023-03-23T14:21:42;21.00;99.90
64620;DHT22;51029;51.058;13.826;2023-03-23T14:24:21;21.60;99.90
64620;DHT22;51029;51.058;13.826;2023-03-23T14:26:48;23.90;93.00
64620;DHT22;51029;51.058;13.826;2023-03-23T14:29:17;25.30;87.50
64620;DHT22;51029;51.058;13.826;2023-03-23T14:31:44;23.50;88.20
64620;DHT22;51029;51.058;13.826;2023-03-23T14:34:15;21.90;93.70
64620;DHT22;51029;51.058;13.826;2023-03-23T14:36:42;20.60;97.50
64620;DHT22;51029;51.058;13.826;2023-03-23T14:41:36;18.70;99.90
64620;DHT22;51029;51.058;13.826;2023-03-23T14:44:06;18.20;99.90
64620;DHT22;51029;51.058;13.826;2023-03-23T14:46:33;17.80;99.90
64620;DHT22;51029;51.058;13.826;2023-03-23T14:49:03;17.50;99.90
64620;DHT22;51029;51.058;13.826;2023-03-23T14:51:29;17.30;99.90
64620;DHT22;51029;51.058;13.826;2023-03-23T14:53:57;17.10;99.90
64620;DHT22;51029;51.058;13.826;2023-03-23T14:56:23;17.00;99.90
64620;DHT22;51029;51.058;13.826;2023-03-23T14:58:53;17.00;99.90
64620;DHT22;51029;51.058;13.826;2023-03-23T15:01:23;16.80;99.90
64620;DHT22;51029;51.058;13.826;2023-03-23T15:03:57;16.80;99.90
64620;DHT22;51029;51.058;13.826;2023-03-23T15:06:28;16.80;99.90
64620;DHT22;51029;51.058;13.826;2023-03-23T15:08:56;16.60;99.90
64620;DHT22;51029;51.058;13.826;2023-03-23T15:11:28;16.50;99.90
64620;DHT22;51029;51.058;13.826;2023-03-23T15:13:57;16.50;99.90
64620;DHT22;51029;51.058;13.826;2023-03-23T15:16:34;16.50;99.90
64620;DHT22;51029;51.058;13.826;2023-03-23T15:19:10;16.60;99.90
64620;DHT22;51029;51.058;13.826;2023-03-23T15:21:54;16.60;99.90
64620;DHT22;51029;51.058;13.826;2023-03-23T15:24:37;16.60;99.90
64620;DHT22;51029;51.058;13.826;2023-03-23T15:27:16;16.50;99.90
64620;DHT22;51029;51.058;13.826;2023-03-23T15:29:56;16.40;99.90
64620;DHT22;51029;51.058;13.826;2023-03-23T15:32:38;16.50;99.90
64620;DHT22;51029;51.058;13.826;2023-03-23T15:35:12;16.50;99.90
64620;DHT22;51029;51.058;13.826;2023-03-23T15:37:43;16.40;99.90
64620;DHT22;51029;51.058;13.826;2023-03-23T15:40:21;16.40;99.90
64620;DHT22;51029;51.058;13.826;2023-03-23T15:42:47;16.30;99.90
64620;DHT22;51029;51.058;13.826;2023-03-23T15:52:53;16.20;99.90
64620;DHT22;51029;51.058;13.826;2023-03-23T15:55:25;16.20;99.90
64620;DHT22;51029;51.058;13.826;2023-03-23T15:57:53;16.20;99.90
64620;DHT22;51029;51.058;13.826;2023-03-23T16:00:20;16.20;99.90
64620;DHT22;51029;51.058;13.826;2023-03-23T16:02:49;16.10;99.90
64620;DHT22;51029;51.058;13.826;2023-03-23T16:05:17;16.10;99.90
64620;DHT22;51029;51.058;13.826;2023-03-23T16:07:42;16.10;99.90
64620;DHT22;51029;51.058;13.826;2023-03-23T16:10:15;16.10;99.90
64620;DHT22;51029;51.058;13.826;2023-03-23T16:12:41;16.00;99.90
64620;DHT22;51029;51.058;13.826;2023-03-23T16:15:07;16.00;99.90
64620;DHT22;51029;51.058;13.826;2023-03-23T16:17:33;15.90;99.90
64620;DHT22;51029;51.058;13.826;2023-03-23T16:19:59;15.90;99.90
64620;DHT22;51029;51.058;13.826;2023-03-23T16:22:24;15.90;99.90
64620;DHT22;51029;51.058;13.826;2023-03-23T16:24:50;15.90;99.90
64620;DHT22;51029;51.058;13.826;2023-03-23T16:27:15;15.80;99.90
64620;DHT22;51029;51.058;13.826;2023-03-23T16:29:41;15.80;99.90
64620;DHT22;51029;51.058;13.826;2023-03-23T16:32:07;15.80;99.90
64620;DHT22;51029;51.058;13.826;2023-03-23T16:34:32;15.80;99.90
64620;DHT22;51029;51.058;13.826;2023-03-23T16:37:00;15.80;99.90
64620;DHT22;51029;51.058;13.826;2023-03-23T16:39:26;15.80;99.90
64620;DHT22;51029;51.058;13.826;2023-03-23T16:41:52;15.80;99.90
64620;DHT22;51029;51.058;13.826;2023-03-23T16:44:17;15.70;99.90
64620;DHT22;51029;51.058;13.826;2023-03-23T16:46:43;15.70;99.90
64620;DHT22;51029;51.058;13.826;2023-03-23T16:49:08;15.70;99.90
64620;DHT22;51029;51.058;13.826;2023-03-23T16:51:34;15.60;99.90
64620;DHT22;51029;51.058;13.826;2023-03-23T16:54:00;15.60;99.90
64620;DHT22;51029;51.058;13.826;2023-03-23T16:56:25;15.60;99.90
64620;DHT22;51029;51.058;13.826;2023-03-23T16:58:51;15.50;99.90
64620;DHT22;51029;51.058;13.826;2023-03-23T17:01:16;15.50;99.90
64620;DHT22;51029;51.058;13.826;2023-03-23T17:03:42;15.40;99.90
64620;DHT22;51029;51.058;13.826;2023-03-23T17:06:07;15.40;99.90
64620;DHT22;51029;51.058;13.826;2023-03-23T17:08:33;15.40;99.90
64620;DHT22;51029;51.058;13.826;2023-03-23T17:10:59;15.30;99.90
64620;DHT22;51029;51.058;13.826;2023-03-23T17:13:25;15.30;99.90
64620;DHT22;51029;51.058;13.826;2023-03-23T17:15:53;15.20;99.90
64620;DHT22;51029;51.058;13.826;2023-03-23T17:18:19;15.20;99.90
64620;DHT22;51029;51.058;13.826;2023-03-23T17:20:44;15.10;99.90
64620;DHT22;51029;51.058;13.826;2023-03-23T17:23:10;15.10;99.90
64620;DHT22;51029;51.058;13.826;2023-03-23T17:25:35;15.00;99.90
64620;DHT22;51029;51.058;13.826;2023-03-23T17:28:01;15.00;99.90